Time;durP1;ratioP1;P1;durP2;ratioP2;P2;SDS_P1;SDS_P2;PMS_P1;PMS_P2;Temp;Humidity;BMP_temperature;BMP_pressure;BME280_temperature;BME280_humidity;BME280_pressure;Samples;Min_cycle;Max_cycle;Signal;HPM_P1;HPM_P2
2022/10/01 00:00:50;;;;;;;19.10;15.60;;;9.30;99.90;;;;;;4991011;28;20030;-78
2022/10/01 00:03:16;;;;;;;19.80;15.67;;;9.30;99.90;;;;;;4990651;28;20042;-78
2022/10/01 00:05:41;;;;;;;22.47;15.47;;;9.40;99.90;;;;;;4990959;28;20383;-78
2022/10/01 00:08:07;;;;;;;19.80;16.30;;;9.40;99.90;;;;;;4990693;28;20034;-78
2022/10/01 00:10:32;;;;;;;20.83;16.33;;;9.40;99.90;;;;;;5005738;28;20088;-78
2022/10/01 00:12:58;;;;;;;19.43;16.13;;;9.40;99.90;;;;;;4990687;28;20034;-78
2022/10/01 00:15:25;;;;;;;18.57;15.67;;;9.40;99.90;;;;;;4990823;28;20039;-78
2022/10/01 00:17:51;;;;;;;20.63;15.97;;;9.40;99.90;;;;;;4990885;28;20024;-78
2022/10/01 00:20:18;;;;;;;22.77;17.30;;;9.50;99.90;;;;;;4990739;28;20030;-78
2022/10/01 00:22:43;;;;;;;19.87;16.97;;;9.50;99.90;;;;;;4991012;28;20076;-78
2022/10/01 00:25:09;;;;;;;18.70;16.17;;;9.50;99.90;;;;;;4990490;28;20427;-78
2022/10/01 00:27:35;;;;;;;20.07;16.37;;;9.50;99.90;;;;;;4990411;28;20113;-78
2022/10/01 00:30:05;;;;;;;21.53;16.90;;;9.50;99.90;;;;;;4990338;28;20046;-78
2022/10/01 00:32:32;;;;;;;20.63;16.20;;;9.50;99.90;;;;;;4984049;28;20035;-78
2022/10/01 00:35:02;;;;;;;21.10;16.33;;;9.50;99.90;;;;;;4974464;28;20456;-79
2022/10/01 00:37:28;;;;;;;18.93;16.07;;;9.50;99.90;;;;;;4971082;28;20023;-78
2022/10/01 00:39:53;;;;;;;18.77;15.90;;;9.60;99.90;;;;;;4970952;28;20031;-79
2022/10/01 00:42:22;;;;;;;19.10;15.50;;;9.50;99.90;;;;;;4971106;28;20038;-78
2022/10/01 00:44:48;;;;;;;21.67;16.23;;;9.50;99.90;;;;;;4970908;28;20027;-78
2022/10/01 00:47:32;;;;;;;20.13;15.53;;;9.50;99.90;;;;;;4970875;28;20093;-78
2022/10/01 00:50:20;;;;;;;19.10;16.17;;;9.60;99.90;;;;;;4970946;28;20030;-78
2022/10/01 00:52:51;;;;;;;18.00;15.27;;;9.60;99.90;;;;;;4972760;28;20106;-78
2022/10/01 00:55:27;;;;;;;25.27;17.17;;;9.60;99.90;;;;;;4974732;28;20365;-79
2022/10/01 00:57:55;;;;;;;19.87;16.00;;;9.60;99.90;;;;;;4974643;28;20035;-78
2022/10/01 01:00:21;;;;;;;21.83;16.00;;;9.60;99.90;;;;;;4974839;28;20030;-78
2022/10/01 01:02:46;;;;;;;23.93;16.93;;;9.60;99.90;;;;;;4974379;28;20132;-78
2022/10/01 01:05:13;;;;;;;22.07;17.83;;;9.60;99.90;;;;;;4974190;28;20086;-78
2022/10/01 01:07:45;;;;;;;21.63;17.40;;;9.60;99.90;;;;;;4974462;28;20038;-78
2022/10/01 01:10:13;;;;;;;22.10;17.30;;;9.50;99.90;;;;;;4974424;28;20029;-78
2022/10/01 01:13:00;;;;;;;26.70;20.40;;;9.60;99.90;;;;;;4974373;28;20039;-78
2022/10/01 01:15:42;;;;;;;25.50;20.00;;;9.50;99.90;;;;;;4974533;28;20026;-78
2022/10/01 01:18:26;;;;;;;24.23;18.73;;;9.50;99.90;;;;;;4989205;28;20023;-78
2022/10/01 01:21:28;;;;;;;25.57;18.97;;;9.50;99.90;;;;;;4974290;28;20023;-78
2022/10/01 01:24:48;;;;;;;23.07;18.50;;;9.40;99.90;;;;;;4967354;28;20072;-78
2022/10/01 01:27:24;;;;;;;22.77;17.47;;;9.30;99.90;;;;;;4971634;28;20031;-79
2022/10/01 01:30:07;;;;;;;24.70;18.30;;;9.30;99.90;;;;;;4973927;28;20050;-78
2022/10/01 01:32:51;;;;;;;23.33;18.13;;;9.20;99.90;;;;;;4981375;28;20030;-78
2022/10/01 01:35:30;;;;;;;22.77;18.47;;;9.20;99.90;;;;;;4974893;28;20480;-78
2022/10/01 01:38:05;;;;;;;25.33;19.20;;;9.10;99.90;;;;;;4973642;28;20096;-78
2022/10/01 01:40:35;;;;;;;26.80;19.27;;;9.10;99.90;;;;;;4974071;28;20026;-78
2022/10/01 01:43:04;;;;;;;27.47;19.63;;;9.00;99.90;;;;;;4973753;28;20030;-78
2022/10/01 01:45:34;;;;;;;23.73;18.87;;;9.00;99.90;;;;;;4973986;28;20745;-78
2022/10/01 01:48:01;;;;;;;25.13;19.27;;;9.00;99.90;;;;;;4973376;28;20034;-78
2022/10/01 01:50:33;;;;;;;25.63;19.27;;;8.90;99.90;;;;;;4973786;28;20122;-78
2022/10/01 01:52:59;;;;;;;24.83;19.47;;;8.90;99.90;;;;;;4973615;28;20042;-78
2022/10/01 01:55:28;;;;;;;23.70;19.20;;;8.80;99.90;;;;;;4973538;28;20031;-78
2022/10/01 01:57:56;;;;;;;26.33;19.00;;;8.80;99.90;;;;;;4973427;28;20066;-78
2022/10/01 02:00:22;;;;;;;26.87;19.53;;;8.70;99.90;;;;;;4973411;28;20420;-78
2022/10/01 02:02:52;;;;;;;26.23;19.37;;;8.70;99.90;;;;;;4973020;28;20444;-78
2022/10/01 02:05:22;;;;;;;27.37;20.10;;;8.60;99.90;;;;;;4973364;28;20059;-78
2022/10/01 02:08:29;;;;;;;25.57;20.00;;;8.60;99.90;;;;;;4973161;28;20031;-78
2022/10/01 02:11:16;;;;;;;25.77;20.53;;;8.50;99.90;;;;;;4954192;28;20043;-78
2022/10/01 02:13:58;;;;;;;23.73;19.00;;;8.50;99.90;;;;;;4973096;28;20035;-78
2022/10/01 02:16:44;;;;;;;29.00;20.00;;;8.50;99.90;;;;;;4972998;28;20050;-78
2022/10/01 02:19:17;;;;;;;23.20;19.50;;;8.40;99.90;;;;;;4973195;28;20106;-78
2022/10/01 02:21:59;;;;;;;26.93;20.30;;;8.40;99.90;;;;;;4973163;28;20385;-78
2022/10/01 02:24:45;;;;;;;25.60;20.07;;;8.40;99.90;;;;;;4972880;28;20029;-78
2022/10/01 02:27:43;;;;;;;25.10;18.50;;;8.30;99.90;;;;;;4972622;28;20058;-78
2022/10/01 02:30:11;;;;;;;26.40;19.70;;;8.30;99.90;;;;;;4972694;28;20042;-78
2022/10/01 02:32:39;;;;;;;25.43;19.17;;;8.30;99.90;;;;;;4978073;28;20113;-78
2022/10/01 02:35:11;;;;;;;24.93;19.77;;;8.30;99.90;;;;;;4989544;28;20428;-78
2022/10/01 02:37:39;;;;;;;24.20;19.47;;;8.20;99.90;;;;;;4991999;28;20076;-78
2022/10/01 02:40:07;;;;;;;24.63;19.03;;;8.20;99.90;;;;;;4992014;28;20084;-78
2022/10/01 02:42:36;;;;;;;26.87;19.93;;;8.20;99.90;;;;;;4992143;28;20141;-78
2022/10/01 02:45:03;;;;;;;26.93;19.10;;;8.20;99.90;;;;;;4991934;28;20030;-78
2022/10/01 02:47:40;;;;;;;24.53;19.07;;;8.20;99.90;;;;;;4991893;28;20073;-78
2022/10/01 02:50:07;;;;;;;26.40;19.00;;;8.10;99.90;;;;;;4992033;28;20026;-78
2022/10/01 02:52:48;;;;;;;21.70;17.80;;;8.10;99.90;;;;;;4991772;28;20026;-78
2022/10/01 02:55:19;;;;;;;22.50;17.13;;;8.10;99.90;;;;;;4991985;28;20034;-78
2022/10/01 02:57:45;;;;;;;23.63;18.27;;;8.10;99.90;;;;;;4991653;28;20042;-78
2022/10/01 03:00:14;;;;;;;23.30;19.13;;;8.00;99.90;;;;;;4991662;28;20518;-78
2022/10/01 03:02:40;;;;;;;24.70;18.23;;;8.00;99.90;;;;;;4991589;28;20105;-78
2022/10/01 03:05:06;;;;;;;22.30;17.73;;;8.00;99.90;;;;;;4991447;28;20113;-78
2022/10/01 03:07:35;;;;;;;24.23;18.13;;;8.00;99.90;;;;;;4991699;28;20019;-78
2022/10/01 03:10:02;;;;;;;25.77;20.37;;;8.00;99.90;;;;;;4991592;28;20320;-78
2022/10/01 03:12:28;;;;;;;22.20;17.93;;;7.90;99.90;;;;;;4991359;28;20030;-78
2022/10/01 03:14:54;;;;;;;22.33;18.87;;;7.90;99.90;;;;;;4990758;28;20038;-78
2022/10/01 03:17:20;;;;;;;22.33;18.43;;;7.90;99.90;;;;;;5006375;28;20027;-78
2022/10/01 03:19:45;;;;;;;23.33;18.23;;;7.90;99.90;;;;;;4991587;28;20061;-78
2022/10/01 03:22:13;;;;;;;23.67;16.57;;;7.90;99.90;;;;;;4991271;28;20030;-78
2022/10/01 03:24:38;;;;;;;24.33;17.83;;;7.90;99.90;;;;;;4990981;28;20038;-78
2022/10/01 03:27:04;;;;;;;20.77;16.27;;;7.80;99.90;;;;;;4991320;28;20080;-78
2022/10/01 03:29:30;;;;;;;20.73;15.73;;;7.80;99.90;;;;;;4990958;28;20042;-78
2022/10/01 03:31:55;;;;;;;21.70;16.63;;;7.80;99.90;;;;;;4985166;28;20038;-78
2022/10/01 03:34:21;;;;;;;20.70;16.97;;;7.70;99.90;;;;;;4980256;28;20023;-78
2022/10/01 03:36:47;;;;;;;21.40;17.07;;;7.70;99.90;;;;;;4971872;28;20027;-77
2022/10/01 03:39:14;;;;;;;20.57;16.70;;;7.70;99.90;;;;;;4971898;28;20384;-78
2022/10/01 03:41:40;;;;;;;25.00;16.87;;;7.70;99.90;;;;;;4971765;28;20428;-78
2022/10/01 03:44:06;;;;;;;18.53;15.70;;;7.70;99.90;;;;;;4971403;28;20035;-78
2022/10/01 03:46:31;;;;;;;21.40;16.13;;;7.70;99.90;;;;;;4971748;28;20161;-78
2022/10/01 03:48:58;;;;;;;20.77;16.43;;;7.70;99.90;;;;;;4971718;28;20034;-78
2022/10/01 03:51:24;;;;;;;21.17;15.73;;;7.70;99.90;;;;;;4971566;28;20029;-77
2022/10/01 03:53:49;;;;;;;20.97;16.17;;;7.70;99.90;;;;;;4971534;28;20030;-78
2022/10/01 03:56:15;;;;;;;18.50;15.60;;;7.70;99.90;;;;;;4971349;28;20414;-78
2022/10/01 03:58:41;;;;;;;19.10;15.17;;;7.70;99.90;;;;;;4971509;28;20028;-77
2022/10/01 04:01:07;;;;;;;19.43;15.33;;;7.70;99.90;;;;;;4971453;28;20038;-77
2022/10/01 04:03:32;;;;;;;20.57;14.07;;;7.60;99.90;;;;;;4971389;28;20173;-78
2022/10/01 04:05:58;;;;;;;18.00;14.37;;;7.60;99.90;;;;;;4971494;28;20113;-78
2022/10/01 04:08:23;;;;;;;19.07;14.73;;;7.60;99.90;;;;;;4971242;28;20412;-78
2022/10/01 04:10:49;;;;;;;17.13;13.57;;;7.60;99.90;;;;;;4971334;28;20049;-77
2022/10/01 04:13:15;;;;;;;17.83;13.57;;;7.50;99.90;;;;;;4971393;28;20042;-77
2022/10/01 04:15:41;;;;;;;17.83;14.53;;;7.50;99.90;;;;;;4971466;28;20023;-77
2022/10/01 04:18:07;;;;;;;17.03;14.00;;;7.60;99.90;;;;;;4971518;28;20540;-77
2022/10/01 04:20:35;;;;;;;17.50;13.77;;;7.60;99.90;;;;;;4986437;28;20721;-78
2022/10/01 04:23:01;;;;;;;17.30;12.87;;;7.60;99.90;;;;;;4971505;28;20026;-77
2022/10/01 04:25:27;;;;;;;18.77;14.00;;;7.60;99.90;;;;;;4971428;28;20790;-77
2022/10/01 04:28:02;;;;;;;16.83;13.77;;;7.60;99.90;;;;;;4989703;28;20026;-77
2022/10/01 04:30:30;;;;;;;16.13;12.73;;;7.60;99.90;;;;;;4975123;28;20038;-77
2022/10/01 04:32:56;;;;;;;15.10;12.80;;;7.60;99.90;;;;;;4985528;28;20422;-77
2022/10/01 04:35:23;;;;;;;18.20;12.43;;;7.60;99.90;;;;;;4975192;28;20035;-77
2022/10/01 04:38:02;;;;;;;14.13;12.40;;;7.60;99.90;;;;;;4974965;28;20379;-77
2022/10/01 04:40:33;;;;;;;15.70;12.40;;;7.50;99.90;;;;;;4975075;28;20030;-77
2022/10/01 04:42:59;;;;;;;14.23;11.73;;;7.50;99.90;;;;;;4974968;28;20035;-77
2022/10/01 04:45:25;;;;;;;15.00;11.73;;;7.50;99.90;;;;;;4974796;28;20038;-77
2022/10/01 04:47:53;;;;;;;16.40;12.87;;;7.50;99.90;;;;;;4975020;28;20037;-77
2022/10/01 04:50:20;;;;;;;14.97;13.10;;;7.50;99.90;;;;;;4975100;28;20138;-77
2022/10/01 04:52:46;;;;;;;16.23;12.93;;;7.50;99.90;;;;;;4974964;28;20026;-77
2022/10/01 04:55:13;;;;;;;15.43;12.27;;;7.40;99.90;;;;;;4989990;28;20034;-77
2022/10/01 04:57:39;;;;;;;16.50;12.97;;;7.40;99.90;;;;;;4974976;28;20058;-77
2022/10/01 05:00:10;;;;;;;14.73;12.77;;;7.40;99.90;;;;;;4974559;28;20062;-77
2022/10/01 05:02:36;;;;;;;15.77;12.27;;;7.40;99.90;;;;;;4974912;28;20572;-77
2022/10/01 05:05:04;;;;;;;17.17;12.93;;;7.40;99.90;;;;;;4974938;28;20121;-77
2022/10/01 05:07:33;;;;;;;16.20;12.37;;;7.40;99.90;;;;;;4975205;28;20383;-77
2022/10/01 05:09:59;;;;;;;16.03;12.63;;;7.40;99.90;;;;;;4975015;28;20085;-77
2022/10/01 05:12:26;;;;;;;17.90;11.37;;;7.40;99.90;;;;;;4974491;28;20026;-78
2022/10/01 05:14:52;;;;;;;15.77;12.60;;;7.40;99.90;;;;;;4976564;28;20035;-78
2022/10/01 05:17:18;;;;;;;15.23;12.43;;;7.40;99.90;;;;;;4988872;28;20038;-78
2022/10/01 05:19:45;;;;;;;15.23;12.40;;;7.50;99.90;;;;;;4995718;28;20030;-78
2022/10/01 05:22:11;;;;;;;18.93;13.20;;;7.50;99.90;;;;;;5000989;28;20033;-78
2022/10/01 05:24:37;;;;;;;15.83;12.93;;;7.60;99.90;;;;;;5014986;28;20501;-78
2022/10/01 05:27:03;;;;;;;17.23;12.47;;;7.60;99.90;;;;;;5015647;28;20030;-72
2022/10/01 05:29:29;;;;;;;17.23;12.80;;;7.60;99.90;;;;;;5013276;28;20141;-74
2022/10/01 05:31:56;;;;;;;18.23;13.30;;;7.70;99.90;;;;;;5001989;28;20030;-78
2022/10/01 05:34:22;;;;;;;15.77;12.07;;;7.70;99.90;;;;;;4994825;28;20112;-78
2022/10/01 05:36:47;;;;;;;15.17;11.87;;;7.80;99.90;;;;;;4995773;28;20071;-77
2022/10/01 05:39:13;;;;;;;15.43;12.00;;;7.80;99.90;;;;;;4995480;28;20038;-77
2022/10/01 05:41:39;;;;;;;16.27;12.00;;;7.90;99.90;;;;;;4996236;28;20030;-77
2022/10/01 05:44:05;;;;;;;15.23;12.20;;;8.00;99.90;;;;;;4996077;28;20030;-77
2022/10/01 05:46:31;;;;;;;12.03;10.40;;;8.10;99.90;;;;;;4996113;28;20139;-77
2022/10/01 05:48:57;;;;;;;20.37;12.30;;;8.10;99.90;;;;;;4995841;28;20109;-77
2022/10/01 05:51:23;;;;;;;13.13;10.50;;;8.20;99.90;;;;;;4995962;28;20117;-77
2022/10/01 05:53:49;;;;;;;12.03;9.93;;;8.20;99.90;;;;;;4995217;28;20041;-77
2022/10/01 05:56:14;;;;;;;13.07;10.60;;;8.30;99.90;;;;;;4995483;28;20178;-77
2022/10/01 05:58:40;;;;;;;11.60;9.50;;;8.40;99.90;;;;;;4995609;28;20057;-77
2022/10/01 06:01:05;;;;;;;15.60;10.50;;;8.40;99.90;;;;;;4995047;28;20036;-81
2022/10/01 06:03:31;;;;;;;12.53;9.87;;;8.50;99.90;;;;;;4993407;28;20029;-81
2022/10/01 06:05:57;;;;;;;12.37;9.70;;;8.60;99.90;;;;;;4993615;28;20040;-81
2022/10/01 06:08:23;;;;;;;12.50;10.13;;;8.60;99.90;;;;;;4993307;28;20106;-81
2022/10/01 06:10:48;;;;;;;12.30;10.20;;;8.60;99.90;;;;;;4993832;28;20427;-81
2022/10/01 06:13:17;;;;;;;14.23;10.00;;;8.70;99.90;;;;;;4993438;28;20117;-81
2022/10/01 06:15:44;;;;;;;11.87;8.73;;;8.70;99.90;;;;;;4994527;28;20490;-81
2022/10/01 06:18:12;;;;;;;12.20;9.73;;;8.70;99.90;;;;;;4993812;28;20133;-82
2022/10/01 06:20:39;;;;;;;12.10;9.43;;;8.80;99.90;;;;;;5005853;28;20113;-81
2022/10/01 06:23:10;;;;;;;11.27;9.50;;;8.80;99.90;;;;;;5013122;28;20477;-79
2022/10/01 06:25:37;;;;;;;14.33;9.40;;;8.80;99.90;;;;;;4997309;28;20356;-79
2022/10/01 06:28:05;;;;;;;11.77;9.20;;;8.90;99.90;;;;;;4993151;28;20018;-79
2022/10/01 06:30:34;;;;;;;11.97;9.50;;;8.90;99.90;;;;;;4993216;28;20078;-79
2022/10/01 06:33:03;;;;;;;12.67;8.83;;;9.00;99.90;;;;;;4980511;28;20502;-79
2022/10/01 06:35:30;;;;;;;10.40;8.70;;;9.00;99.90;;;;;;4973689;28;20027;-80
2022/10/01 06:37:56;;;;;;;10.63;9.30;;;9.10;99.90;;;;;;4974391;28;20065;-80
2022/10/01 06:40:23;;;;;;;13.10;9.63;;;9.10;99.90;;;;;;4974462;28;20483;-80
2022/10/01 06:42:49;;;;;;;10.63;9.33;;;9.20;99.90;;;;;;4973959;28;20038;-80
2022/10/01 06:45:18;;;;;;;11.07;8.83;;;9.30;99.90;;;;;;4974485;28;20030;-89
2022/10/01 06:47:44;;;;;;;11.90;9.03;;;9.30;99.90;;;;;;4974950;28;20022;-82
2022/10/01 06:50:10;;;;;;;10.97;8.23;;;9.40;99.90;;;;;;4987799;28;20078;-80
2022/10/01 06:52:48;;;;;;;9.93;8.77;;;9.40;99.90;;;;;;4972929;28;20022;-80
2022/10/01 06:55:27;;;;;;;10.27;8.37;;;9.50;99.90;;;;;;4972915;28;20434;-80
2022/10/01 06:57:58;;;;;;;9.80;8.60;;;9.60;99.90;;;;;;4988057;28;20714;-85
2022/10/01 07:00:25;;;;;;;12.07;8.77;;;9.60;99.90;;;;;;4972581;28;20037;-78
2022/10/01 07:02:51;;;;;;;8.90;8.00;;;9.60;99.90;;;;;;4982465;28;20450;-78
2022/10/01 07:05:16;;;;;;;19.47;8.17;;;9.70;99.90;;;;;;4993256;28;20042;-78
2022/10/01 07:07:43;;;;;;;9.53;7.33;;;9.70;99.90;;;;;;4992045;28;20034;-78
2022/10/01 07:10:10;;;;;;;10.10;8.23;;;9.80;99.90;;;;;;4993456;28;20050;-78
2022/10/01 07:12:36;;;;;;;9.33;7.60;;;9.80;99.90;;;;;;4993714;28;20041;-78
2022/10/01 07:15:04;;;;;;;12.50;8.73;;;9.90;99.90;;;;;;4993396;28;20030;-78
2022/10/01 07:17:30;;;;;;;10.00;7.50;;;9.90;99.90;;;;;;4993933;28;20084;-78
2022/10/01 07:19:55;;;;;;;10.07;7.87;;;10.00;99.90;;;;;;5001036;28;20026;-78
2022/10/01 07:22:23;;;;;;;10.40;7.63;;;10.00;99.90;;;;;;5012634;28;20029;-78
2022/10/01 07:24:48;;;;;;;9.53;6.83;;;10.10;99.90;;;;;;5010190;28;20058;-78
2022/10/01 07:27:14;;;;;;;8.90;6.80;;;10.20;99.90;;;;;;5011315;28;20080;-76
2022/10/01 07:29:40;;;;;;;6.77;5.70;;;10.20;99.90;;;;;;5010542;28;20048;-76
2022/10/01 07:32:08;;;;;;;6.23;5.10;;;10.30;99.90;;;;;;4994779;28;20023;-76
2022/10/01 07:34:37;;;;;;;8.10;5.73;;;10.30;99.90;;;;;;4978524;28;20026;-76
2022/10/01 07:37:03;;;;;;;8.97;5.10;;;10.40;99.90;;;;;;4971909;28;20027;-76
2022/10/01 07:39:29;;;;;;;6.90;4.33;;;10.50;99.90;;;;;;4971942;28;20499;-76
2022/10/01 07:41:55;;;;;;;4.35;3.58;;;10.60;99.90;;;;;;4971896;28;20400;-76
2022/10/01 07:44:21;;;;;;;5.05;3.67;;;10.70;99.90;;;;;;4986722;28;20093;-76
2022/10/01 07:46:47;;;;;;;4.38;3.47;;;10.80;99.90;;;;;;4971831;28;20102;-76
2022/10/01 07:49:14;;;;;;;9.15;3.78;;;10.80;99.90;;;;;;4971760;28;20029;-76
2022/10/01 07:51:42;;;;;;;4.00;3.13;;;10.90;99.90;;;;;;4971781;28;20015;-76
2022/10/01 07:54:08;;;;;;;3.88;3.10;;;10.90;99.90;;;;;;4971783;28;20023;-77
2022/10/01 07:56:33;;;;;;;4.47;2.90;;;11.00;99.90;;;;;;4971533;28;20034;-81
2022/10/01 07:58:59;;;;;;;5.05;3.13;;;11.10;99.90;;;;;;4972314;28;20029;-77
2022/10/01 08:01:24;;;;;;;3.50;2.65;;;11.20;99.90;;;;;;4986865;28;20058;-76
2022/10/01 08:03:52;;;;;;;4.68;2.75;;;11.30;99.90;;;;;;4972148;28;20027;-77
2022/10/01 08:06:19;;;;;;;3.58;2.60;;;11.30;99.90;;;;;;4972031;28;20721;-77
2022/10/01 08:08:45;;;;;;;3.70;2.65;;;11.40;99.90;;;;;;4972108;28;20031;-77
2022/10/01 08:11:13;;;;;;;2.90;2.30;;;11.40;99.90;;;;;;4979636;28;20305;-77
2022/10/01 08:13:39;;;;;;;4.93;2.70;;;11.50;99.90;;;;;;4982265;28;20034;-77
2022/10/01 08:16:06;;;;;;;4.97;2.50;;;11.60;99.90;;;;;;4980374;28;20027;-77
2022/10/01 08:18:33;;;;;;;4.55;2.65;;;11.60;99.90;;;;;;4980701;28;20081;-77
2022/10/01 08:21:00;;;;;;;3.95;1.90;;;11.60;99.90;;;;;;4974308;28;20555;-77
2022/10/01 08:23:27;;;;;;;3.08;2.40;;;11.60;99.90;;;;;;4971691;28;20041;-77
2022/10/01 08:25:59;;;;;;;3.65;2.70;;;11.60;99.90;;;;;;4971730;28;20069;-76
2022/10/01 08:28:25;;;;;;;3.70;2.35;;;11.70;99.90;;;;;;4971179;28;20094;-76
2022/10/01 08:30:50;;;;;;;2.78;2.15;;;11.60;99.90;;;;;;4971163;28;20443;-76
2022/10/01 08:33:16;;;;;;;3.83;2.25;;;11.70;99.90;;;;;;4979237;28;20472;-76
2022/10/01 08:35:42;;;;;;;3.60;2.42;;;11.80;99.90;;;;;;4989615;28;20792;-77
2022/10/01 08:38:08;;;;;;;3.85;2.30;;;11.80;99.90;;;;;;4990626;28;20145;-76
2022/10/01 08:40:41;;;;;;;2.75;2.00;;;11.90;99.90;;;;;;4990838;28;20101;-77
2022/10/01 08:43:30;;;;;;;5.90;2.15;;;11.90;99.90;;;;;;4990377;28;20025;-76
2022/10/01 08:46:00;;;;;;;3.33;2.30;;;12.00;99.90;;;;;;4986551;28;20109;-77
2022/10/01 08:48:57;;;;;;;2.72;2.13;;;11.90;99.90;;;;;;4990463;28;20521;-77
2022/10/01 08:51:31;;;;;;;5.68;2.00;;;11.90;99.90;;;;;;4990773;28;20030;-76
2022/10/01 08:54:22;;;;;;;3.03;2.13;;;12.00;99.90;;;;;;4990542;28;20041;-77
2022/10/01 08:56:49;;;;;;;3.03;2.10;;;12.00;99.90;;;;;;4986268;28;20034;-77
2022/10/01 08:59:43;;;;;;;5.20;3.28;;;12.00;99.90;;;;;;4990500;28;20041;-77
2022/10/01 09:02:30;;;;;;;3.97;2.22;;;12.10;99.90;;;;;;4991757;28;20098;-80
2022/10/01 09:05:03;;;;;;;2.83;2.03;;;12.00;99.90;;;;;;5006632;28;20443;-80
2022/10/01 09:07:47;;;;;;;2.60;1.90;;;12.10;99.90;;;;;;4990729;28;20093;-77
2022/10/01 09:10:23;;;;;;;2.63;1.80;;;12.10;99.90;;;;;;4990475;28;20105;-77
2022/10/01 09:12:57;;;;;;;2.85;1.63;;;12.20;99.90;;;;;;4990960;28;20033;-77
2022/10/01 09:15:46;;;;;;;4.45;1.73;;;12.20;99.90;;;;;;4994067;28;20431;-77
2022/10/01 09:18:48;;;;;;;4.30;1.73;;;12.30;99.90;;;;;;4994029;28;20383;-77
2022/10/01 09:21:23;;;;;;;3.97;1.70;;;12.40;99.90;;;;;;4993927;28;20057;-77
2022/10/01 09:24:02;;;;;;;4.85;1.70;;;12.50;99.90;;;;;;4993930;28;20206;-77
2022/10/01 09:26:27;;;;;;;2.70;1.80;;;12.50;99.90;;;;;;4994096;28;20031;-77
2022/10/01 09:28:54;;;;;;;2.00;1.45;;;12.60;99.90;;;;;;4993469;28;20019;-77
2022/10/01 09:31:26;;;;;;;3.30;1.65;;;12.60;99.90;;;;;;4991923;28;20034;-77
2022/10/01 09:34:07;;;;;;;3.47;1.60;;;12.60;99.90;;;;;;4982771;28;20050;-77
2022/10/01 09:36:44;;;;;;;3.60;1.60;;;12.60;99.90;;;;;;4974209;28;20026;-77
2022/10/01 09:39:32;;;;;;;4.25;1.70;;;12.60;99.90;;;;;;4974093;28;20034;-77
2022/10/01 09:41:58;;;;;;;5.13;1.70;;;12.60;99.90;;;;;;4974309;28;20053;-76
2022/10/01 09:44:28;;;;;;;2.28;1.50;;;12.50;99.90;;;;;;4974135;28;20030;-76
2022/10/01 09:46:54;;;;;;;2.35;1.65;;;12.50;99.90;;;;;;4974164;28;20460;-77
2022/10/01 09:49:38;;;;;;;3.20;1.85;;;12.30;99.90;;;;;;4974297;28;20101;-77
2022/10/01 09:52:14;;;;;;;3.05;1.70;;;12.30;99.90;;;;;;4974119;28;20019;-76
2022/10/01 09:54:49;;;;;;;2.65;1.50;;;12.30;99.90;;;;;;4974200;28;20038;-77
2022/10/01 09:57:32;;;;;;;6.50;1.90;;;12.20;99.90;;;;;;4974328;28;20027;-77
2022/10/01 10:00:09;;;;;;;3.13;1.40;;;12.20;99.90;;;;;;4981735;28;20022;-77
2022/10/01 10:02:52;;;;;;;2.65;1.70;;;12.20;99.90;;;;;;4993308;28;20026;-77
2022/10/01 10:05:21;;;;;;;2.35;1.80;;;12.10;99.90;;;;;;4993428;28;20026;-77
2022/10/01 10:07:54;;;;;;;4.00;2.00;;;12.00;99.90;;;;;;4993527;28;20102;-77
2022/10/01 10:10:29;;;;;;;2.47;1.52;;;12.10;99.90;;;;;;4993483;28;20476;-77
2022/10/01 10:13:03;;;;;;;2.90;2.03;;;12.10;99.90;;;;;;4993752;28;20101;-77
2022/10/01 10:15:31;;;;;;;2.90;2.00;;;12.10;99.90;;;;;;4993261;28;20026;-77
2022/10/01 10:18:11;;;;;;;3.95;1.90;;;12.00;99.90;;;;;;4993546;28;20036;-77
2022/10/01 10:20:40;;;;;;;2.72;2.00;;;11.90;99.90;;;;;;4993711;28;20037;-77
2022/10/01 10:23:15;;;;;;;4.93;2.00;;;12.00;99.90;;;;;;4993064;28;20054;-77
2022/10/01 10:25:42;;;;;;;3.47;2.03;;;11.90;99.90;;;;;;4992859;28;20030;-77
2022/10/01 10:28:22;;;;;;;5.00;2.10;;;11.90;99.90;;;;;;4993195;28;20027;-77
2022/10/01 10:30:54;;;;;;;3.38;2.10;;;11.80;99.90;;;;;;4993082;28;20069;-77
2022/10/01 10:33:21;;;;;;;3.45;2.35;;;11.80;99.90;;;;;;4986932;28;20031;-76
2022/10/01 10:36:03;;;;;;;3.28;2.35;;;11.80;99.90;;;;;;4975879;28;20026;-78
2022/10/01 10:38:33;;;;;;;4.07;2.30;;;11.80;99.90;;;;;;4990840;28;20097;-78
2022/10/01 10:41:00;;;;;;;4.65;2.50;;;11.70;99.90;;;;;;4975825;28;20027;-76
2022/10/01 10:43:30;;;;;;;3.42;2.30;;;11.60;99.90;;;;;;4975201;28;20134;-82
2022/10/01 10:45:57;;;;;;;4.63;2.80;;;11.60;99.90;;;;;;4983862;28;20066;-82
2022/10/01 10:48:44;;;;;;;4.55;2.17;;;11.50;99.90;;;;;;4994855;28;20483;-84
2022/10/01 10:51:09;;;;;;;2.72;2.20;;;11.50;99.90;;;;;;4996460;28;20467;-83
2022/10/01 10:53:44;;;;;;;4.85;2.40;;;11.50;99.90;;;;;;4975452;28;20053;-80
2022/10/01 10:56:26;;;;;;;6.10;2.50;;;11.40;99.90;;;;;;4973112;28;20033;-80
2022/10/01 10:58:52;;;;;;;3.00;2.08;;;11.40;99.90;;;;;;4972961;28;20468;-80
2022/10/01 11:01:26;;;;;;;6.68;2.65;;;11.40;99.90;;;;;;4972989;28;20027;-80
2022/10/01 11:03:56;;;;;;;5.28;2.45;;;11.40;99.90;;;;;;4972655;28;20369;-80
2022/10/01 11:06:22;;;;;;;3.65;2.38;;;11.40;99.90;;;;;;4972886;28;20499;-80
2022/10/01 11:08:57;;;;;;;6.65;3.33;;;11.30;99.90;;;;;;4987106;28;20107;-80
2022/10/01 11:11:32;;;;;;;3.50;2.70;;;11.30;99.90;;;;;;4972441;28;20089;-80
2022/10/01 11:14:07;;;;;;;4.75;2.45;;;11.30;99.90;;;;;;4972697;28;20076;-80
2022/10/01 11:17:04;;;;;;;4.88;2.65;;;11.30;99.90;;;;;;4972684;28;20054;-80
2022/10/01 11:19:38;;;;;;;4.88;3.45;;;11.30;99.90;;;;;;4972788;28;20066;-80
2022/10/01 11:22:31;;;;;;;6.38;3.97;;;11.30;99.90;;;;;;4972338;28;20122;-80
2022/10/01 11:25:27;;;;;;;4.28;3.17;;;11.30;99.90;;;;;;4972366;28;20036;-80
2022/10/01 11:28:14;;;;;;;5.13;3.53;;;11.30;99.90;;;;;;4963771;28;20046;-80
2022/10/01 11:30:55;;;;;;;5.97;3.30;;;11.30;99.90;;;;;;4972411;28;20042;-79
2022/10/01 11:33:26;;;;;;;5.18;2.85;;;11.20;99.90;;;;;;4974670;28;20023;-79
2022/10/01 11:36:17;;;;;;;3.97;2.85;;;11.20;99.90;;;;;;4974667;28;20353;-79
2022/10/01 11:38:48;;;;;;;3.65;2.70;;;11.20;99.90;;;;;;4974962;28;20026;-79
2022/10/01 11:41:26;;;;;;;4.13;2.75;;;11.20;99.90;;;;;;4974655;28;20054;-78
2022/10/01 11:43:55;;;;;;;3.60;3.08;;;11.20;99.90;;;;;;4974448;28;20117;-76
2022/10/01 11:46:38;;;;;;;4.40;2.80;;;11.20;99.90;;;;;;4974427;28;20039;-76
2022/10/01 11:49:39;;;;;;;5.50;3.65;;;11.10;99.90;;;;;;4974412;28;20062;-77
2022/10/01 11:52:15;;;;;;;6.03;3.40;;;11.10;99.90;;;;;;4974263;28;20094;-81
2022/10/01 12:00:57;;;;;;;5.32;3.05;;;11.10;99.90;;;;;;4972960;28;20236;-76
2022/10/01 12:03:31;;;;;;;3.72;2.92;;;11.10;99.90;;;;;;4973781;28;20097;-76
2022/10/01 12:05:58;;;;;;;5.88;3.80;;;11.10;99.90;;;;;;4973619;28;20145;-76
2022/10/01 12:08:30;;;;;;;5.60;3.42;;;11.00;99.90;;;;;;4973840;28;20030;-76
2022/10/01 12:11:04;;;;;;;4.25;3.28;;;11.00;99.90;;;;;;4973684;28;20034;-76
2022/10/01 12:13:41;;;;;;;4.70;3.17;;;11.00;99.90;;;;;;4973839;28;20098;-76
2022/10/01 12:16:18;;;;;;;5.60;4.25;;;11.00;99.90;;;;;;4973750;28;20031;-76
2022/10/01 12:18:50;;;;;;;3.70;3.20;;;11.00;99.90;;;;;;4973663;28;20062;-76
2022/10/01 12:21:24;;;;;;;5.45;3.30;;;11.00;99.90;;;;;;4973661;28;20380;-76
2022/10/01 12:23:56;;;;;;;6.22;2.88;;;11.00;99.90;;;;;;4973402;28;20027;-76
2022/10/01 12:26:42;;;;;;;4.07;2.95;;;10.90;99.90;;;;;;4973591;28;20440;-76
2022/10/01 12:29:22;;;;;;;4.53;3.00;;;10.90;99.90;;;;;;4977449;28;20444;-75
2022/10/01 12:32:12;;;;;;;3.40;2.70;;;10.90;99.90;;;;;;5004470;28;20038;-76
2022/10/01 12:34:59;;;;;;;2.90;2.22;;;10.90;99.90;;;;;;4993391;28;20053;-76
2022/10/01 12:37:27;;;;;;;5.03;2.60;;;10.90;99.90;;;;;;4993511;28;20113;-76
2022/10/01 12:40:11;;;;;;;3.72;2.78;;;10.80;99.90;;;;;;4993532;28;20080;-78
2022/10/01 12:43:02;;;;;;;4.88;2.72;;;10.90;99.90;;;;;;4993338;28;20026;-77
2022/10/01 12:46:01;;;;;;;3.33;2.35;;;10.80;99.90;;;;;;5008344;28;20039;-77
2022/10/01 12:49:00;;;;;;;3.28;2.53;;;10.90;99.90;;;;;;4995094;28;20028;-77
2022/10/01 12:51:51;;;;;;;3.75;2.45;;;10.90;99.90;;;;;;4996206;28;20039;-77
2022/10/01 12:54:35;;;;;;;3.25;2.25;;;10.80;99.90;;;;;;4997104;28;20423;-77
2022/10/01 12:57:09;;;;;;;2.72;2.05;;;10.80;99.90;;;;;;4996946;28;20022;-77
2022/10/01 12:59:39;;;;;;;3.17;1.98;;;10.80;99.90;;;;;;4996855;28;20045;-77
2022/10/01 13:02:33;;;;;;;3.80;2.00;;;10.90;99.90;;;;;;4996967;28;20037;-77
2022/10/01 13:05:16;;;;;;;3.00;1.73;;;10.80;99.90;;;;;;4996645;28;20030;-77
2022/10/01 13:08:18;;;;;;;2.85;1.60;;;10.80;99.90;;;;;;4996677;28;20376;-77
2022/10/01 13:11:06;;;;;;;4.32;1.80;;;10.90;99.90;;;;;;4996454;28;20045;-77
2022/10/01 13:13:33;;;;;;;1.90;1.70;;;10.80;99.90;;;;;;4993504;28;20042;-77